Colorado Springs, CO (80920)

9:14 AM MDT on September 04, 2015 (GMT -0600)
Charleston Place, Briargate, CO | | Change Station
CLOSE
Current Station
Personal Weather Station
Location: Colorado Springs, CO
Elevation: 6870 ft
Nearby Weather Stations

Elev 6870 ft 38.95 °N, 104.76 °W | Updated 4 seconds ago

Clear
Clear
72.9 °F
Feels Like 77 °F
N
1.2
Wind Variable Wind from SSE
Gusts 1.2 mph

Today
High -- | Low -- °F
--% Chance of Precip.
Yesterday
High -- | Low -- °F
Precip. -- in
6:30 AM 7:25 PM
Waning Gibbous, 58% visible
Pressure 29.91 in
Visibility 10.0 miles
Clouds Overcast 15000 ft
Heat Index 77 °F
Dew Point 48 °F
Humidity 42%
Rainfall 0.00 in
Snow Depth Not available.
UV 1 out of 12
Pollen 9.90 out of 12
Air Quality Not available.
Flu Activity Not available.
METAR KAFF 041458Z AUTO 11003KT 10SM OVC150 18/09 A3013 RMK AO2 SLP127 T01840087 52013
Pressure 29.91 in
Visibility 10.0 miles
Clouds Overcast 15000 ft
Heat Index 77 °F
Dew Point 48 °F
Humidity 42%
Rainfall 0.00 in
Snow Depth Not available.
UV 1 out of 12
Pollen 9.90 out of 12
Air Quality Not available.
Flu Activity Not available.
METAR KAFF 041458Z AUTO 11003KT 10SM OVC150 18/09 A3013 RMK AO2 SLP127 T01840087 52013

10-Day Weather Forecast

×

Almanac

Astronomy

Sep. 04, 2015 Rise Set
Actual Time
Civil Twilight
Nautical Twilight
Astronomical Twilight
Moon
Length of Visible Light
Length of Day
Tomorrow will be .
, % of the Moon is Illuminated

Today's Extremes

State Highs State Lows

Community

WunderPhotos

Upload Photos

1,852,190 photos uploaded!

WunderBlogs® & News

Nearby

Air Quality

  Air Quality AQ Index Pollutant
Not available.

Snow Depth

Station Depth Elevation

Earthquake Activity

City Distance Mag. Time & Date
Minimum magnitude displayed is 2.5.

Coastal Water Temperatures

Place Temperature

Stations

Nearby Weather Stations

Station Location Temp. Windchill Dew Point Humidity Wind Precip. Elev Updated Type